• Join FlightAware (Why Join?)
  • Login
  • US Flag 
11:46AM EST


 

Airport Tracker/Info


-or-


 

Live Flight TrackerFlight Track Log ✈ UCA771A ✈ 30-Apr-2012 ✈ KEWR - KROC

Flight Track Log - Related Links

Times and Time Zones

All times are in EDT time to prevent confusion due to time zone crossing. See the UCA771A flight status page for this flight to view local times or setup timezone preferences in your user account.

Time Position Orientation Groundspeed Altitude Reporting Facility
EDT Latitude Longitude Course Direction KTS MPH feet Rate Location/Type
08:52AM 40.7333 -74.1333 303° West 176 203 2,400  Level New York TRACON
08:53AM 40.7667 -74.2000 270° West 172 198 4,200 1,740 Climbing New York TRACON
08:54AM 40.7667 -74.2500 311° West 168 193 5,900 1,560 Climbing New York TRACON
08:55AM 40.8000 -74.3000 333° Northwest 174 200 7,400 1,500 Climbing New York TRACON
08:56AM 40.8500 -74.3333 339° North 178 205 8,900 1,260 Climbing New York TRACON
08:57AM 40.8833 -74.3500 333° Northwest 178 205 10,000 540 Climbing New York TRACON
08:58AM 40.9333 -74.3833 333° Northwest 216 249 10,000 600 Level New York TRACON
08:59AM 40.9864 -74.4186 341° North 214 246 11,200 1,020 Climbing New York Center
09:00AM 41.0400 -74.4436 344° North 208 239 12,000 360 Climbing New York Center
09:01AM 41.0975 -74.4661 343° North 208 239 12,000  Level New York Center
09:02AM 41.1592 -74.4914 342° North 226 260 12,000  Level New York Center
09:03AM 41.2189 -74.5167 345° North 226 260 12,000  Level New York Center
09:04AM 41.2828 -74.5397 342° North 226 260 12,000  Level New York Center
09:05AM 41.3422 -74.5650 343° North 226 260 12,000  Level New York Center
09:06AM 41.3978 -74.5875 310° West 226 260 12,000  Level New York Center
09:07AM 41.4414 -74.6564 303° West 220 253 12,000  Level New York Center
09:08AM 41.4725 -74.7192 303° West 226 260 12,000  Level New York Center
09:09AM 41.5114 -74.7992 302° West 231 266 12,000  Level New York Center
09:10AM 41.5425 -74.8647 305° West 231 266 12,000  Level New York Center
09:11AM 41.5836 -74.9419 302° West 231 266 12,000  Level New York Center
09:12AM 41.6164 -75.0133 305° West 239 275 12,000  Level New York Center
09:13AM 41.6494 -75.0767 303° West 239 275 12,000  Level New York Center
09:14AM 41.6864 -75.1539 303° West 239 275 12,000  Level New York Center
09:15AM 41.7211 -75.2258 302° West 239 275 12,000  Level New York Center
09:16AM 41.7539 -75.2975 304° West 239 275 12,000  Level New York Center
09:17AM 41.7867 -75.3636 303° West 239 275 12,000 -60 Level New York Center
09:18AM 41.8214 -75.4356 303° West 239 275 11,900 -60 Descending New York Center
09:19AM 41.8597 -75.5164 303° West 239 275 11,900  Level New York Center
09:20AM 41.8944 -75.5883 302° West 239 275 11,900  Level New York Center
09:21AM 41.9250 -75.6547 304° West 239 275 11,900  Level New York Center
09:22AM 41.9653 -75.7358 303° West 244 281 11,900  Level New York Center
09:23AM 41.9997 -75.8081 302° West 239 275 11,900  Level New York Center
09:24AM 42.0303 -75.8747 304° West 239 275 11,900  Level New York Center
09:25AM 42.0703 -75.9561 301° West 239 275 11,900  Level New York Center
09:26AM 42.1044 -76.0314 304° West 239 275 11,900  Level New York Center
09:27AM 42.1408 -76.1042 300° West 244 281 11,900  Level New York Center
09:28AM 42.1600 -76.1483 300° West 243 280 11,900  Level Cleveland Center
09:29AM 42.1900 -76.2192 302° West 236 272 11,900  Level Cleveland Center
09:30AM 42.2261 -76.2981 299° West 231 266 11,900  Level Cleveland Center
09:31AM 42.2561 -76.3719 302° West 226 260 11,900  Level Cleveland Center
09:32AM 42.2922 -76.4508 299° West 239 275 11,900  Level Cleveland Center
09:33AM 42.3242 -76.5275 301° West 239 275 11,900  Level Cleveland Center
09:34AM 42.3581 -76.6039 301° West 239 275 12,000  Climbing Cleveland Center
09:35AM 42.3875 -76.6697 299° West 239 275 12,000  Level Cleveland Center
09:36AM 42.4194 -76.7464 300° West 239 275 12,000  Level Cleveland Center
09:37AM 42.4533 -76.8261 299° West 239 275 12,000  Level Cleveland Center
09:38AM 42.4850 -76.9031 303° West 239 275 12,000  Level Cleveland Center
09:39AM 42.5206 -76.9769 298° West 239 275 12,000 -180 Level Cleveland Center
09:40AM 42.5522 -77.0569 299° West 239 275 11,700 -420 Descending Cleveland Center
09:41AM 42.5861 -77.1397 313° West 244 281 11,200 -480 Descending Cleveland Center
09:42AM 42.6447 -77.2239 325° Northwest 254 292 10,700 -720 Descending Cleveland Center
09:43AM 42.7006 -77.2775 328° Northwest 257 296 9,700 -1,200 Descending Cleveland Center
09:44AM 42.7561 -77.3256 325° Northwest 260 299 8,500 -1,440 Descending Cleveland Center
09:45AM 42.8119 -77.3792 325° Northwest 255 293 7,000 -1,200 Descending Cleveland Center
09:46AM 42.8717 -77.4356 342° North 241 277 6,000 -780 Descending Cleveland Center
09:47AM 42.9286 -77.4611 353° North 244 281 5,500 -780 Descending Cleveland Center
09:48AM 42.9978 -77.4719 352° North 242 278 4,600 -780 Descending Cleveland Center
09:49AM 43.0689 -77.4853 352° North 253 291 4,000 -300 Descending Cleveland Center
09:50AM 43.1422 -77.4989 309° West 258 297 4,000 -540 Level Cleveland Center
09:51AM 43.1881 -77.5764 264° West 221 254 2,800 -960 Descending Cleveland Center
09:52AM 43.1833 -77.6333 204° Southwest 166 191 2,000 -840 Descending Cleveland Center
09:53AM 43.1483 -77.6550 204° Southwest 139 160 1,200 -840 Descending Cleveland Center